createdAt,value
2017-07-27T00:01:51.098Z,4.53
2017-07-27T00:04:18.633Z,4.40
2017-07-27T00:06:46.150Z,4.03
2017-07-27T00:09:14.462Z,5.10
2017-07-27T00:11:41.994Z,5.20
2017-07-27T00:14:09.534Z,4.50
2017-07-27T00:16:37.855Z,4.77
2017-07-27T00:19:05.570Z,5.33
2017-07-27T00:21:33.957Z,4.33
2017-07-27T00:24:01.539Z,4.97
2017-07-27T00:26:29.067Z,5.07
2017-07-27T00:28:57.350Z,4.67
2017-07-27T00:31:24.910Z,4.63
2017-07-27T00:33:52.529Z,4.43
2017-07-27T00:36:20.082Z,5.20
2017-07-27T00:38:47.616Z,4.87
2017-07-27T00:41:15.166Z,5.37
2017-07-27T00:43:42.694Z,4.90
2017-07-27T00:46:10.980Z,5.30
2017-07-27T00:48:38.533Z,4.90
2017-07-27T00:51:06.199Z,4.87
2017-07-27T00:53:33.887Z,4.50
2017-07-27T00:56:01.438Z,5.00
2017-07-27T00:58:28.962Z,6.20
2017-07-27T01:00:57.258Z,4.87
2017-07-27T01:03:24.794Z,5.00
2017-07-27T01:05:53.086Z,5.10
2017-07-27T01:08:20.642Z,4.80
2017-07-27T01:10:48.158Z,4.40
2017-07-27T01:13:15.714Z,4.30
2017-07-27T01:15:43.242Z,4.93
2017-07-27T01:18:10.794Z,4.20
2017-07-27T01:20:38.423Z,4.20
2017-07-27T01:23:05.994Z,4.70
2017-07-27T01:25:33.514Z,4.67
2017-07-27T01:28:01.034Z,4.40
2017-07-27T01:30:28.598Z,4.80
2017-07-27T01:32:56.167Z,4.67
2017-07-27T01:35:23.849Z,4.67
2017-07-27T01:37:51.370Z,4.57
2017-07-27T01:40:19.058Z,4.33
2017-07-27T01:42:46.619Z,5.10
2017-07-27T01:45:14.150Z,5.37
2017-07-27T01:47:41.680Z,4.57
2017-07-27T01:50:09.248Z,4.40
2017-07-27T01:52:36.773Z,5.10
2017-07-27T01:55:05.094Z,4.77
2017-07-27T01:57:32.677Z,5.43
2017-07-27T02:00:00.198Z,4.53
2017-07-27T02:02:27.769Z,3.90
2017-07-27T02:04:55.294Z,4.83
2017-07-27T02:07:22.814Z,5.00
2017-07-27T02:09:50.369Z,5.10
2017-07-27T02:12:17.881Z,4.60
2017-07-27T02:14:45.488Z,4.30
2017-07-27T02:17:13.012Z,5.00
2017-07-27T02:19:40.590Z,4.47
2017-07-27T02:22:08.243Z,4.80
2017-07-27T02:24:35.773Z,5.03
2017-07-27T02:27:03.332Z,4.60
2017-07-27T02:29:30.867Z,4.43
2017-07-27T02:31:59.178Z,4.70
2017-07-27T02:34:26.703Z,4.57
2017-07-27T02:36:54.249Z,4.93
2017-07-27T02:39:22.545Z,4.20
2017-07-27T02:41:50.108Z,4.10
2017-07-27T02:44:17.667Z,4.13
2017-07-27T02:46:45.175Z,4.43
2017-07-27T02:49:12.726Z,4.37
2017-07-27T02:51:40.256Z,4.50
2017-07-27T02:54:07.794Z,3.80
2017-07-27T02:56:35.322Z,4.43
2017-07-27T02:59:03.635Z,4.20
2017-07-27T03:01:31.162Z,4.80
2017-07-27T03:03:59.477Z,4.53
2017-07-27T03:06:27.054Z,4.17
2017-07-27T03:08:54.678Z,4.20
2017-07-27T03:11:22.243Z,4.20
2017-07-27T03:13:49.798Z,3.80
2017-07-27T03:16:17.321Z,4.53
2017-07-27T03:18:45.643Z,4.40
2017-07-27T03:21:13.168Z,4.73
2017-07-27T03:23:40.683Z,4.73
2017-07-27T03:26:08.342Z,4.40
2017-07-27T03:28:35.862Z,3.77
2017-07-27T03:31:03.399Z,4.00
2017-07-27T03:33:30.922Z,3.90
2017-07-27T03:35:58.462Z,5.00
2017-07-27T03:38:25.986Z,4.50
2017-07-27T03:40:53.622Z,4.57
2017-07-27T03:43:21.906Z,5.13
2017-07-27T03:45:49.513Z,5.00
2017-07-27T03:48:17.058Z,5.07
2017-07-27T03:50:44.666Z,4.43
2017-07-27T03:53:12.978Z,4.63
2017-07-27T03:55:40.497Z,4.53
2017-07-27T03:58:08.781Z,4.67
2017-07-27T04:00:37.108Z,4.63
2017-07-27T04:03:04.622Z,4.50
2017-07-27T04:05:32.175Z,5.53
2017-07-27T04:08:00.458Z,6.97
2017-07-27T04:10:28.078Z,5.50
2017-07-27T04:12:55.666Z,5.70
2017-07-27T04:15:23.953Z,5.67
2017-07-27T04:17:51.507Z,5.80
2017-07-27T04:20:19.022Z,5.20
2017-07-27T04:22:46.552Z,5.17
2017-07-27T04:25:14.170Z,5.40
2017-07-27T04:27:42.455Z,5.03
2017-07-27T04:30:10.023Z,5.30
2017-07-27T04:32:37.546Z,5.40
2017-07-27T04:35:06.035Z,5.60
2017-07-27T04:37:34.327Z,5.43
2017-07-27T04:40:01.859Z,4.80
2017-07-27T04:42:29.407Z,5.33
2017-07-27T04:44:56.930Z,5.43
2017-07-27T04:47:24.482Z,5.83
2017-07-27T04:49:52.011Z,5.60
2017-07-27T04:52:19.519Z,5.60
2017-07-27T04:54:47.070Z,6.30
2017-07-27T04:57:26.629Z,6.43
2017-07-27T04:59:54.172Z,6.17
2017-07-27T05:02:21.705Z,6.30
2017-07-27T05:04:49.400Z,6.20
2017-07-27T05:07:16.923Z,6.70
2017-07-27T05:09:44.454Z,7.60
2017-07-27T05:12:12.001Z,6.80
2017-07-27T05:14:40.315Z,7.60
2017-07-27T05:17:07.863Z,7.77
2017-07-27T05:19:35.442Z,7.73
2017-07-27T05:22:02.998Z,7.30
2017-07-27T05:24:30.535Z,7.60
2017-07-27T05:26:58.079Z,7.20
2017-07-27T05:29:25.634Z,6.50
2017-07-27T05:31:53.155Z,7.10
2017-07-27T05:34:20.764Z,6.43
2017-07-27T05:36:48.355Z,6.27
2017-07-27T05:39:15.886Z,6.47
2017-07-27T05:41:43.514Z,5.90
2017-07-27T05:44:11.799Z,6.47
2017-07-27T05:46:39.318Z,6.83
2017-07-27T05:49:06.871Z,6.50
2017-07-27T05:51:34.420Z,5.20
2017-07-27T05:54:01.994Z,4.87
2017-07-27T05:56:29.519Z,6.10
2017-07-27T05:58:57.093Z,5.40
2017-07-27T06:01:24.611Z,4.60
2017-07-27T06:03:52.159Z,4.10
2017-07-27T06:06:20.478Z,5.30
2017-07-27T06:08:48.002Z,5.27
2017-07-27T06:11:15.565Z,4.80
2017-07-27T06:13:43.139Z,4.60
2017-07-27T06:16:10.692Z,5.90
2017-07-27T06:18:38.242Z,5.77
2017-07-27T06:21:05.806Z,6.23
2017-07-27T06:23:33.358Z,5.03
2017-07-27T06:26:00.876Z,5.60
2017-07-27T06:28:28.422Z,5.30
2017-07-27T06:30:55.942Z,5.67
2017-07-27T06:33:23.498Z,5.60
2017-07-27T06:35:51.034Z,5.17
2017-07-27T06:38:18.586Z,6.23
2017-07-27T06:40:46.146Z,6.83
2017-07-27T06:43:13.670Z,5.50
2017-07-27T06:45:41.246Z,5.90
2017-07-27T06:48:08.755Z,5.20
2017-07-27T06:50:36.270Z,5.47
2017-07-27T06:53:04.586Z,5.70
2017-07-27T06:55:32.105Z,5.10
2017-07-27T06:58:00.428Z,6.30
2017-07-27T07:00:27.962Z,5.37
2017-07-27T07:02:55.530Z,4.63
2017-07-27T07:05:23.065Z,5.00
2017-07-27T07:07:50.670Z,3.80
2017-07-27T07:10:18.233Z,5.20
2017-07-27T07:12:45.789Z,4.90
2017-07-27T07:15:13.351Z,4.90
2017-07-27T07:17:40.874Z,4.67
2017-07-27T07:20:08.452Z,4.60
2017-07-27T07:22:35.991Z,4.70
2017-07-27T07:25:03.521Z,4.87
2017-07-27T07:27:32.031Z,4.00
2017-07-27T07:29:59.563Z,4.47
2017-07-27T07:32:27.138Z,4.10
2017-07-27T07:34:54.666Z,4.30
2017-07-27T07:37:22.995Z,4.60
2017-07-27T07:39:50.526Z,4.00
2017-07-27T07:42:18.147Z,4.00
2017-07-27T07:44:45.674Z,3.90
2017-07-27T07:47:13.203Z,3.73
2017-07-27T07:49:40.911Z,5.00
2017-07-27T07:52:08.424Z,4.90
2017-07-27T07:54:35.989Z,4.30
2017-07-27T07:57:03.518Z,5.47
2017-07-27T07:59:31.242Z,4.57
2017-07-27T08:01:58.786Z,4.50
2017-07-27T08:04:26.318Z,4.57
2017-07-27T08:06:53.881Z,4.20
2017-07-27T08:09:33.347Z,3.70
2017-07-27T08:12:00.910Z,4.37
2017-07-27T08:14:28.540Z,4.50
2017-07-27T08:16:56.095Z,3.87
2017-07-27T08:19:23.663Z,4.53
2017-07-27T08:21:51.374Z,3.80
2017-07-27T08:24:19.664Z,4.80
2017-07-27T08:26:47.207Z,4.13
2017-07-27T08:29:15.502Z,4.60
2017-07-27T08:31:43.061Z,3.77
2017-07-27T08:34:10.583Z,4.23
2017-07-27T08:36:38.106Z,4.07
2017-07-27T08:39:05.656Z,4.57
2017-07-27T08:41:33.192Z,3.73
2017-07-27T08:44:00.750Z,3.80
2017-07-27T08:46:28.399Z,4.40
2017-07-27T08:48:56.877Z,4.10
2017-07-27T08:51:25.167Z,3.80
2017-07-27T08:53:52.874Z,3.70
2017-07-27T08:56:20.574Z,4.13
2017-07-27T08:58:48.863Z,3.60
2017-07-27T09:01:16.422Z,3.53
2017-07-27T09:03:43.950Z,3.73
2017-07-27T09:06:12.243Z,3.10
2017-07-27T09:08:39.798Z,3.53
2017-07-27T09:11:08.043Z,3.63
2017-07-27T09:13:35.794Z,3.23
2017-07-27T09:16:03.489Z,3.40
2017-07-27T09:18:31.902Z,3.80
2017-07-27T09:20:59.592Z,3.80
2017-07-27T09:23:27.105Z,3.30
2017-07-27T09:25:54.673Z,3.13
2017-07-27T09:28:22.238Z,3.27
2017-07-27T09:30:49.813Z,3.70
2017-07-27T09:33:17.354Z,3.60
2017-07-27T09:35:45.099Z,3.10
2017-07-27T09:38:13.432Z,3.13
2017-07-27T09:40:41.868Z,3.13
2017-07-27T09:43:09.394Z,3.50
2017-07-27T09:45:37.675Z,2.57
2017-07-27T09:48:05.222Z,2.90
2017-07-27T09:50:33.536Z,3.37
2017-07-27T09:53:01.105Z,2.30
2017-07-27T09:55:28.635Z,3.47
2017-07-27T09:58:01.722Z,2.70
2017-07-27T10:00:29.362Z,2.83
2017-07-27T10:02:57.810Z,3.10
2017-07-27T10:05:25.336Z,2.97
2017-07-27T10:07:52.868Z,3.03
2017-07-27T10:10:21.182Z,2.23
2017-07-27T10:12:48.714Z,2.73
2017-07-27T10:15:16.279Z,2.70
2017-07-27T10:17:43.878Z,2.30
2017-07-27T10:20:11.426Z,2.63
2017-07-27T10:22:38.964Z,2.47
2017-07-27T10:25:06.594Z,2.80
2017-07-27T10:27:34.130Z,2.60
2017-07-27T10:30:01.655Z,2.83
2017-07-27T10:32:29.231Z,2.43
2017-07-27T10:34:56.755Z,2.40
2017-07-27T10:37:24.382Z,3.00
2017-07-27T10:39:52.759Z,2.60
2017-07-27T10:42:20.323Z,2.40
2017-07-27T10:44:47.987Z,2.40
2017-07-27T10:47:15.517Z,2.30
2017-07-27T10:49:43.972Z,2.20
2017-07-27T10:52:11.587Z,2.30
2017-07-27T10:54:39.150Z,2.30
2017-07-27T10:57:06.683Z,2.33
2017-07-27T10:59:35.001Z,3.13
2017-07-27T11:02:02.544Z,2.30
2017-07-27T11:04:30.194Z,2.57
2017-07-27T11:06:57.742Z,2.60
2017-07-27T11:09:25.301Z,2.40
2017-07-27T11:11:53.640Z,3.20
2017-07-27T11:14:21.176Z,2.60
2017-07-27T11:16:48.715Z,2.60
2017-07-27T11:19:16.268Z,2.20
2017-07-27T11:21:43.802Z,2.37
2017-07-27T11:24:11.370Z,2.40
2017-07-27T11:26:38.925Z,2.37
2017-07-27T11:29:06.452Z,2.30
2017-07-27T11:31:34.019Z,2.40
2017-07-27T11:34:03.094Z,2.50
2017-07-27T11:36:30.722Z,3.00
2017-07-27T11:38:58.256Z,2.77
2017-07-27T11:41:25.871Z,2.53
2017-07-27T11:43:53.434Z,2.40
2017-07-27T11:46:20.973Z,2.40
2017-07-27T11:48:48.677Z,2.60
2017-07-27T11:51:17.013Z,2.17
2017-07-27T11:53:44.521Z,1.97
2017-07-27T11:56:12.071Z,1.87
2017-07-27T11:58:39.602Z,2.30
2017-07-27T12:01:07.171Z,2.23
2017-07-27T12:03:34.683Z,2.10
2017-07-27T12:06:02.260Z,2.60
2017-07-27T12:08:29.872Z,2.10
2017-07-27T12:10:57.399Z,2.30
2017-07-27T12:13:24.957Z,2.57
2017-07-27T12:15:53.250Z,2.00
2017-07-27T12:18:20.828Z,2.40
2017-07-27T12:20:48.346Z,2.00
2017-07-27T12:23:16.643Z,1.90
2017-07-27T12:25:44.192Z,2.70
2017-07-27T12:28:12.476Z,1.77
2017-07-27T12:30:40.796Z,2.50
2017-07-27T12:33:08.323Z,2.07
2017-07-27T12:35:35.881Z,2.13
2017-07-27T12:38:03.427Z,2.20
2017-07-27T12:40:30.951Z,1.90
2017-07-27T12:42:58.493Z,2.13
2017-07-27T12:45:26.015Z,2.60
2017-07-27T12:47:53.569Z,2.30
2017-07-27T12:50:21.094Z,2.10
2017-07-27T12:52:49.383Z,2.03
2017-07-27T12:55:17.699Z,2.50
2017-07-27T12:57:45.214Z,2.20
2017-07-27T13:00:12.767Z,2.20
2017-07-27T13:02:41.198Z,2.27
2017-07-27T13:05:08.755Z,2.53
2017-07-27T13:07:36.375Z,2.00
2017-07-27T13:10:03.943Z,2.63
2017-07-27T13:12:31.467Z,2.20
2017-07-27T13:14:58.988Z,2.10
2017-07-27T13:17:26.540Z,2.30
2017-07-27T13:19:54.055Z,2.03
2017-07-27T13:22:21.626Z,2.10
2017-07-27T13:24:49.951Z,2.10
2017-07-27T13:27:17.487Z,2.00
2017-07-27T13:29:45.051Z,2.27
2017-07-27T13:32:12.578Z,2.13
2017-07-27T13:34:40.147Z,2.20
2017-07-27T13:37:07.692Z,2.23
2017-07-27T13:39:35.223Z,2.23
2017-07-27T13:42:03.543Z,2.00
2017-07-27T13:44:31.243Z,1.97
2017-07-27T13:46:58.794Z,2.40
2017-07-27T13:49:26.324Z,2.20
2017-07-27T13:51:53.863Z,1.97
2017-07-27T13:54:21.410Z,2.17
2017-07-27T13:56:48.951Z,2.17
2017-07-27T13:59:17.266Z,2.47
2017-07-27T14:01:44.783Z,1.90
2017-07-27T14:04:13.112Z,2.40
2017-07-27T14:06:40.634Z,2.33
2017-07-27T14:09:08.171Z,2.13
2017-07-27T14:11:36.495Z,2.07
2017-07-27T14:14:04.176Z,2.20
2017-07-27T14:16:31.743Z,1.80
2017-07-27T14:18:59.397Z,1.93
2017-07-27T14:21:27.002Z,1.90
2017-07-27T14:23:54.531Z,2.10
2017-07-27T14:26:22.045Z,1.87
2017-07-27T14:28:49.748Z,1.83
2017-07-27T14:31:17.275Z,2.03
2017-07-27T14:33:44.827Z,1.67
2017-07-27T14:36:12.367Z,1.90
2017-07-27T14:38:39.958Z,2.03
2017-07-27T14:41:07.506Z,1.90
2017-07-27T14:43:35.202Z,1.50
2017-07-27T14:46:02.738Z,1.90
2017-07-27T14:48:31.418Z,1.90
2017-07-27T14:50:58.959Z,2.00
2017-07-27T14:53:26.590Z,2.10
2017-07-27T14:55:54.143Z,2.20
2017-07-27T14:58:22.434Z,2.50
2017-07-27T15:00:50.091Z,2.00
2017-07-27T15:03:17.634Z,1.80
2017-07-27T15:05:45.914Z,1.77
2017-07-27T15:08:13.536Z,1.70
2017-07-27T15:10:41.191Z,2.00
2017-07-27T15:13:08.856Z,2.03
2017-07-27T15:15:36.475Z,2.20
2017-07-27T15:18:04.067Z,2.37
2017-07-27T15:20:31.678Z,2.13
2017-07-27T15:22:59.234Z,2.30
2017-07-27T15:25:26.770Z,2.27
2017-07-27T15:27:55.095Z,2.10
2017-07-27T15:30:22.666Z,1.70
2017-07-27T15:32:50.210Z,2.00
2017-07-27T15:35:17.762Z,2.03
2017-07-27T15:37:45.327Z,2.37
2017-07-27T15:40:12.858Z,2.20
2017-07-27T15:42:40.401Z,2.10
2017-07-27T15:45:08.714Z,1.90
2017-07-27T15:47:36.266Z,2.23
2017-07-27T15:50:03.792Z,2.77
2017-07-27T15:52:32.089Z,1.93
2017-07-27T15:54:59.662Z,2.10
2017-07-27T15:57:27.403Z,2.47
2017-07-27T15:59:54.929Z,2.07
2017-07-27T16:02:22.494Z,2.27
2017-07-27T16:04:50.795Z,2.40
2017-07-27T16:07:18.360Z,2.60
2017-07-27T16:09:45.887Z,1.90
2017-07-27T16:12:14.221Z,2.30
2017-07-27T16:14:41.886Z,2.27
2017-07-27T16:17:09.525Z,2.47
2017-07-27T16:19:37.069Z,2.43
2017-07-27T16:22:04.604Z,2.50
2017-07-27T16:24:32.927Z,2.27
2017-07-27T16:27:00.514Z,2.33
2017-07-27T16:29:28.238Z,2.70
2017-07-27T16:31:55.770Z,2.63
2017-07-27T16:34:23.343Z,2.43
2017-07-27T16:36:50.890Z,2.17
2017-07-27T16:39:18.414Z,2.30
2017-07-27T16:41:45.967Z,2.80
2017-07-27T16:44:13.486Z,2.63
2017-07-27T16:46:41.020Z,2.40
2017-07-27T16:49:08.668Z,2.30
2017-07-27T16:51:36.952Z,2.63
2017-07-27T16:54:04.641Z,2.33
2017-07-27T16:56:32.188Z,2.53
2017-07-27T16:58:59.735Z,2.70
2017-07-27T17:01:27.300Z,2.63
2017-07-27T17:03:54.902Z,2.40
2017-07-27T17:06:22.538Z,2.30
2017-07-27T17:08:50.160Z,2.53
2017-07-27T17:11:17.692Z,2.40
2017-07-27T17:13:45.253Z,2.37
2017-07-27T17:16:13.545Z,2.47
2017-07-27T17:18:41.880Z,2.87
2017-07-27T17:21:09.472Z,2.40
2017-07-27T17:23:37.792Z,2.03
2017-07-27T17:26:05.344Z,2.53
2017-07-27T17:28:32.938Z,2.00
2017-07-27T17:31:00.454Z,2.80
2017-07-27T17:33:28.131Z,2.37
2017-07-27T17:35:55.666Z,2.50
2017-07-27T17:38:23.218Z,2.40
2017-07-27T17:40:50.748Z,2.83
2017-07-27T17:43:18.272Z,2.70
2017-07-27T17:45:45.988Z,2.70
2017-07-27T17:48:13.567Z,2.77
2017-07-27T17:50:41.165Z,2.50
2017-07-27T17:53:08.735Z,2.70
2017-07-27T17:55:36.259Z,2.43
2017-07-27T17:58:03.805Z,2.30
2017-07-27T18:00:31.379Z,2.50
2017-07-27T18:02:58.926Z,2.40
2017-07-27T18:05:26.467Z,2.20
2017-07-27T18:07:54.007Z,2.90
2017-07-27T18:10:21.581Z,2.30
2017-07-27T18:12:49.119Z,2.40
2017-07-27T18:15:16.702Z,2.43
2017-07-27T18:17:44.262Z,2.40
2017-07-27T18:20:11.789Z,2.47
2017-07-27T18:22:40.101Z,2.43
2017-07-27T18:25:07.666Z,2.50
2017-07-27T18:27:35.202Z,2.20
2017-07-27T18:30:02.800Z,2.40
2017-07-27T18:32:30.639Z,2.23
2017-07-27T18:34:58.150Z,2.33
2017-07-27T18:37:25.782Z,2.03
2017-07-27T18:39:53.334Z,2.40
2017-07-27T18:42:20.953Z,2.00
2017-07-27T18:44:48.487Z,2.30
2017-07-27T18:47:16.832Z,1.77
2017-07-27T18:49:44.384Z,2.63
2017-07-27T18:52:11.927Z,2.20
2017-07-27T18:54:39.511Z,2.30
2017-07-27T18:57:07.031Z,2.60
2017-07-27T18:59:34.575Z,2.00
2017-07-27T19:02:02.135Z,2.10
2017-07-27T19:04:29.670Z,2.47
2017-07-27T19:06:57.995Z,2.03
2017-07-27T19:09:25.514Z,2.27
2017-07-27T19:11:53.089Z,1.93
2017-07-27T19:14:20.640Z,2.50
2017-07-27T19:16:48.948Z,2.53
2017-07-27T19:19:16.479Z,2.20
2017-07-27T19:21:44.016Z,2.50
2017-07-27T19:24:12.335Z,2.33
2017-07-27T19:26:39.875Z,2.10
2017-07-27T19:29:07.422Z,2.07
2017-07-27T19:31:34.960Z,2.20
2017-07-27T19:34:03.263Z,2.30
2017-07-27T19:36:31.009Z,2.00
2017-07-27T19:38:58.564Z,2.60
2017-07-27T19:41:26.988Z,1.93
2017-07-27T19:43:54.550Z,2.23
2017-07-27T19:46:22.079Z,2.60
2017-07-27T19:48:49.656Z,2.10
2017-07-27T19:51:17.198Z,2.33
2017-07-27T19:53:44.746Z,2.03
2017-07-27T19:56:12.292Z,1.90
2017-07-27T19:58:40.571Z,2.23
2017-07-27T20:01:08.156Z,2.00
2017-07-27T20:03:35.693Z,2.60
2017-07-27T20:06:03.274Z,1.80
2017-07-27T20:08:30.801Z,2.40
2017-07-27T20:10:59.168Z,2.30
2017-07-27T20:13:27.518Z,2.70
2017-07-27T20:15:55.046Z,1.90
2017-07-27T20:18:22.598Z,1.90
2017-07-27T20:20:50.146Z,2.10
2017-07-27T20:23:17.686Z,2.63
2017-07-27T20:25:46.040Z,2.20
2017-07-27T20:28:14.351Z,1.70
2017-07-27T20:30:41.971Z,2.00
2017-07-27T20:33:09.531Z,2.40
2017-07-27T20:35:37.065Z,2.10
2017-07-27T20:38:04.620Z,2.70
2017-07-27T20:40:32.146Z,2.80
2017-07-27T20:42:59.735Z,2.40
2017-07-27T20:45:27.282Z,2.57
2017-07-27T20:47:54.821Z,2.33
2017-07-27T20:50:22.411Z,2.07
2017-07-27T20:52:49.953Z,2.13
2017-07-27T20:55:17.682Z,1.87
2017-07-27T20:57:45.229Z,2.20
2017-07-27T21:00:13.567Z,1.70
2017-07-27T21:02:41.081Z,2.00
2017-07-27T21:05:08.610Z,1.90
2017-07-27T21:07:36.927Z,2.30
2017-07-27T21:10:04.455Z,2.00
2017-07-27T21:12:32.799Z,2.20
2017-07-27T21:15:00.324Z,2.43
2017-07-27T21:17:27.855Z,2.77
2017-07-27T21:19:55.425Z,2.03
2017-07-27T21:22:22.934Z,2.20
2017-07-27T21:24:50.494Z,1.93
2017-07-27T21:27:18.051Z,1.87
2017-07-27T21:29:45.580Z,2.57
2017-07-27T21:32:13.103Z,2.13
2017-07-27T21:34:40.684Z,2.23
2017-07-27T21:37:08.380Z,1.83
2017-07-27T21:39:35.934Z,2.47
2017-07-27T21:42:03.479Z,1.70
2017-07-27T21:44:31.150Z,2.07
2017-07-27T21:46:58.707Z,2.20
2017-07-27T21:49:26.243Z,1.70
2017-07-27T21:51:53.823Z,2.23
2017-07-27T21:54:21.511Z,2.40
2017-07-27T21:56:49.836Z,2.03
2017-07-27T21:59:17.631Z,1.37
2017-07-27T22:01:45.150Z,1.50
2017-07-27T22:04:12.841Z,1.77
2017-07-27T22:06:40.369Z,2.10
2017-07-27T22:09:07.991Z,2.20
2017-07-27T22:11:36.440Z,2.20
2017-07-27T22:14:03.964Z,2.30
2017-07-27T22:16:31.521Z,2.10
2017-07-27T22:18:59.053Z,2.20
2017-07-27T22:21:26.569Z,2.40
2017-07-27T22:23:54.130Z,1.73
2017-07-27T22:26:21.660Z,1.80
2017-07-27T22:28:49.211Z,2.00
2017-07-27T22:31:16.751Z,1.90
2017-07-27T22:33:44.314Z,1.60
2017-07-27T22:36:11.843Z,1.80
2017-07-27T22:38:40.154Z,1.60
2017-07-27T22:41:07.699Z,1.60
2017-07-27T22:43:35.231Z,1.50
2017-07-27T22:46:03.650Z,1.87
2017-07-27T22:48:31.162Z,1.40
2017-07-27T22:50:59.483Z,1.97
2017-07-27T22:53:27.030Z,1.67
2017-07-27T22:55:54.562Z,2.17
2017-07-27T22:58:22.954Z,1.70
2017-07-27T23:00:50.545Z,2.03
2017-07-27T23:03:18.128Z,1.80
2017-07-27T23:05:45.675Z,1.70
2017-07-27T23:08:13.202Z,1.70
2017-07-27T23:10:40.779Z,2.30
2017-07-27T23:13:08.314Z,2.10
2017-07-27T23:15:35.830Z,2.30
2017-07-27T23:18:03.523Z,2.13
2017-07-27T23:20:31.058Z,2.00
2017-07-27T23:22:59.387Z,1.93
2017-07-27T23:25:26.910Z,2.30
2017-07-27T23:27:54.423Z,2.40
2017-07-27T23:30:21.978Z,2.07
2017-07-27T23:32:49.520Z,2.17
2017-07-27T23:35:17.022Z,2.43
2017-07-27T23:37:45.334Z,2.23
2017-07-27T23:40:12.868Z,2.33
2017-07-27T23:42:41.182Z,1.70
2017-07-27T23:45:08.890Z,2.47
2017-07-27T23:47:37.188Z,2.53
2017-07-27T23:55:49.421Z,2.77
2017-07-27T23:58:16.962Z,1.97
